createdAt,value
2022-08-20T00:07:48.346Z,97387.69
2022-08-20T00:17:51.564Z,97400.56
2022-08-20T00:27:53.151Z,97386.19
2022-08-20T00:38:00.387Z,97382.56
2022-08-20T00:48:02.597Z,97388.19
2022-08-20T00:58:09.550Z,97388.34
2022-08-20T01:08:11.754Z,97390.13
2022-08-20T01:18:16.732Z,97384.72
2022-08-20T01:28:23.792Z,97397.03
2022-08-20T01:38:25.290Z,97382.38
2022-08-20T01:48:27.832Z,97381.41
2022-08-20T01:58:30.302Z,97385.28
2022-08-20T02:08:33.855Z,97385.44
2022-08-20T02:18:35.593Z,97384.22
2022-08-20T02:28:37.241Z,97387.44
2022-08-20T02:38:40.801Z,97381.84
2022-08-20T02:48:42.551Z,97386.06
2022-08-20T02:58:44.447Z,97384.78
2022-08-20T03:08:45.937Z,97383.72
2022-08-20T03:18:52.081Z,97384.13
2022-08-20T03:28:53.836Z,97385.44
2022-08-20T03:38:57.825Z,97391.47
2022-08-20T03:49:00.522Z,97396.06
2022-08-20T03:59:02.216Z,97413.31
2022-08-20T04:09:04.181Z,97417.69
2022-08-20T04:19:06.186Z,97419.28
2022-08-20T04:29:08.365Z,97425.19
2022-08-20T04:39:09.855Z,97439.94
2022-08-20T04:49:11.431Z,97434.00
2022-08-20T04:59:12.889Z,97450.25
2022-08-20T05:09:14.399Z,97448.81
2022-08-20T05:19:16.421Z,97463.19
2022-08-20T05:29:18.050Z,97470.28
2022-08-20T05:39:21.709Z,97475.34
2022-08-20T05:49:23.182Z,97470.63
2022-08-20T05:59:26.061Z,97478.50
2022-08-20T06:09:31.463Z,97487.13
2022-08-20T06:19:34.379Z,97483.19
2022-08-20T06:29:36.654Z,97486.53
2022-08-20T06:39:38.220Z,97499.25
2022-08-20T06:49:39.986Z,97493.75
2022-08-20T06:59:41.872Z,97490.31
2022-08-20T07:09:44.062Z,97496.09
2022-08-20T07:19:45.589Z,97507.66
2022-08-20T07:30:10.923Z,97520.38
2022-08-20T07:40:29.141Z,97523.16
2022-08-20T07:50:31.732Z,97527.53
2022-08-20T08:00:33.613Z,97549.19
2022-08-20T08:10:37.581Z,97542.19
2022-08-20T08:20:46.872Z,97553.16
2022-08-20T08:30:48.974Z,97549.78
2022-08-20T08:40:54.069Z,97558.66
2022-08-20T08:51:11.411Z,97563.16
2022-08-20T09:01:53.886Z,97566.03
2022-08-20T09:11:48.738Z,97571.91
2022-08-20T09:21:50.290Z,97567.59
2022-08-20T09:31:51.831Z,97575.91
2022-08-20T09:41:54.083Z,97568.41
2022-08-20T09:51:56.278Z,97564.66
2022-08-20T10:01:57.876Z,97561.81
2022-08-20T10:11:59.372Z,97569.31
2022-08-20T10:22:01.019Z,97559.56
2022-08-20T10:32:14.628Z,97561.22
2022-08-20T10:42:16.260Z,97558.84
2022-08-20T10:52:18.258Z,97560.38
2022-08-20T11:02:21.255Z,97561.81
2022-08-20T11:12:23.432Z,97557.63
2022-08-20T11:22:26.181Z,97545.28
2022-08-20T11:32:27.755Z,97539.81
2022-08-20T11:42:29.323Z,97522.75
2022-08-20T11:52:31.482Z,97511.16
2022-08-20T12:02:33.099Z,97503.16
2022-08-20T12:12:35.643Z,97487.69
2022-08-20T12:22:37.297Z,97508.31
2022-08-20T12:32:39.360Z,97510.75
2022-08-20T12:42:41.066Z,97515.88
2022-08-20T12:52:43.031Z,97524.25
2022-08-20T13:02:44.690Z,97518.59
2022-08-20T13:12:46.156Z,97502.19
2022-08-20T13:22:47.709Z,97491.78
2022-08-20T13:32:49.472Z,97519.97
2022-08-20T13:42:51.065Z,97514.22
2022-08-20T13:52:52.885Z,97490.06
2022-08-20T14:02:54.430Z,97492.50
2022-08-20T14:12:56.201Z,97510.06
2022-08-20T14:22:58.584Z,97511.41
2022-08-20T14:33:00.096Z,97510.81
2022-08-20T14:43:03.094Z,97516.69
2022-08-20T14:53:05.396Z,97541.72
2022-08-20T15:03:06.926Z,97535.19
2022-08-20T15:13:08.829Z,97532.25
2022-08-20T15:23:10.338Z,97545.84
2022-08-20T15:33:11.917Z,97531.56
2022-08-20T15:43:13.804Z,97529.25
2022-08-20T15:53:31.899Z,97549.72
2022-08-20T16:04:02.027Z,97569.44
2022-08-20T16:14:15.521Z,97572.28
2022-08-20T16:24:18.275Z,97563.44
2022-08-20T16:34:34.048Z,97571.69
2022-08-20T16:44:41.983Z,97581.31
2022-08-20T16:54:44.685Z,97583.88
2022-08-20T17:04:59.300Z,97580.34
2022-08-20T17:15:01.830Z,97588.25
2022-08-20T17:25:13.378Z,97582.28
2022-08-20T17:35:23.762Z,97578.72
2022-08-20T17:45:30.411Z,97585.53
2022-08-20T17:55:35.173Z,97579.13
2022-08-20T18:05:38.761Z,97598.88
2022-08-20T18:15:53.695Z,97607.13
2022-08-20T18:26:19.324Z,97600.69
2022-08-20T18:36:20.729Z,97605.16
2022-08-20T18:46:23.552Z,97608.38
2022-08-20T18:56:37.236Z,97608.84
2022-08-20T19:06:49.404Z,97607.41
2022-08-20T19:16:59.765Z,97611.38
2022-08-20T19:27:05.713Z,97615.94
2022-08-20T19:37:34.932Z,97610.44
2022-08-20T19:47:57.153Z,97618.63
2022-08-20T19:58:02.018Z,97602.06
2022-08-20T20:08:04.295Z,97609.78
2022-08-20T20:18:07.815Z,97609.63
2022-08-20T20:28:14.543Z,97603.41
2022-08-20T20:38:27.888Z,97607.25
2022-08-20T20:48:34.032Z,97599.81
2022-08-20T20:58:36.566Z,97598.06
2022-08-20T21:08:38.257Z,97601.25
2022-08-20T21:18:40.984Z,97596.81
2022-08-20T21:28:42.534Z,97595.53
2022-08-20T21:38:44.000Z,97606.63
2022-08-20T21:48:48.137Z,97595.44
2022-08-20T21:58:50.693Z,97595.13
2022-08-20T22:08:55.314Z,97594.66
2022-08-20T22:18:56.814Z,97589.94
2022-08-20T22:28:58.542Z,97595.44
2022-08-20T22:39:00.196Z,97592.78
2022-08-20T22:49:03.135Z,97577.19
2022-08-20T22:59:05.277Z,97570.72
2022-08-20T23:09:06.742Z,97563.91
2022-08-20T23:19:11.123Z,97563.44
2022-08-20T23:29:13.356Z,97562.81
2022-08-20T23:39:25.119Z,97574.50
2022-08-20T23:49:27.964Z,97560.59
2022-08-20T23:59:29.468Z,97542.66
